Latest Weather Observations for Dubbo

IDN60801

Issued at 7:03 pm EST Wednesday 12 August 2020 (issued every 10 minutes, with the page automatically refreshed every 10 minutes)

About weather observations | Map of weather stations | Latest weather observations for NSW | Other Formats
Station Details ID: 065070 Name: DUBBO AIRPORT AWS Lat: -32.22 Lon: 148.58 Height: 284.0 m
Data from the previous 72 hours. | See also: Recent months at Dubbo
Date/Time
EST
Temp
°C
App
Temp
°C
Dew
Point
°C
Rel
Hum
%
Delta-T
°C
Wind Press
QNH
hPa
Press
MSL
hPa
Rain since
9am
mm
Dir  Spd
km/h
Gust
km/h
Spd
kts
Gust
kts
12/07:00pm 12.9 12.9 9.9 82 1.6 CALM 0 0 0 0 1012.5 1012.6 0.0
12/06:30pm 12.3 11.7 9.0 80 1.7 N 2 7 1 4 1012.1 1012.3 0.0
12/06:00pm 14.1 12.6 9.1 72 2.6 NNW 7 9 4 5 1011.9 1012.1 0.0
12/05:30pm 15.8 14.0 9.5 66 3.3 NNW 9 13 5 7 1011.8 1012.0 0.0
12/05:00pm 17.9 15.9 10.0 60 4.3 NNW 11 15 6 8 1011.5 1011.7 0.0
12/04:30pm 18.3 15.0 9.4 56 4.7 NNW 17 22 9 12 1011.4 1011.6 0.0
12/04:00pm 19.3 15.1 9.8 54 5.1 NNW 22 32 12 17 1011.3 1011.5 0.0
12/03:30pm 19.7 15.8 9.3 51 5.6 NNW 20 28 11 15 1011.2 1011.4 0.0
12/03:00pm 19.9 14.6 10.0 53 5.4 NNW 28 35 15 19 1011.3 1011.5 0.0
12/02:30pm 20.0 14.6 9.6 51 5.6 NNW 28 35 15 19 1011.5 1011.7 0.0
12/02:00pm 20.6 16.1 10.1 51 5.7 NNW 24 35 13 19 1011.6 1011.8 0.0
12/01:30pm 20.2 15.4 8.8 48 6.1 NNW 24 33 13 18 1011.6 1011.8 0.0
12/01:00pm 20.1 15.6 8.4 47 6.2 NNW 22 30 12 16 1012.0 1012.2 0.0
12/12:30pm 20.0 16.5 8.7 48 6.0 N 17 28 9 15 1012.8 1012.9 0.0
12/12:00pm 18.9 16.5 8.8 52 5.3 NNE 11 19 6 10 1013.4 1013.6 0.0
12/11:30am 18.7 16.6 9.8 56 4.8 NE 11 19 6 10 1014.0 1014.2 0.0
12/11:00am 17.4 15.2 9.3 59 4.3 NE 11 15 6 8 1014.6 1014.8 0.0
12/10:30am 16.5 14.2 9.0 61 3.9 ENE 11 17 6 9 1015.3 1015.5 0.0
12/10:00am 14.5 12.2 9.1 70 2.8 ESE 11 15 6 8 1016.0 1016.1 0.0
12/09:30am 13.4 11.3 9.8 79 1.9 SE 11 15 6 8 1016.5 1016.7 0.0
12/09:00am 11.3 9.3 8.7 84 1.3 SE 9 13 5 7 1016.8 1017.0 0.2
12/08:30am 10.0 8.0 8.6 91 0.7 SE 9 13 5 7 1016.9 1017.1 0.2
12/08:00am 9.5 7.2 7.6 88 0.9 E 9 11 5 6 1016.9 1017.1 0.0
12/07:30am 9.5 6.4 7.1 85 1.1 ENE 13 15 7 8 1016.9 1017.1 0.0
12/07:00am 9.0 5.7 6.6 85 1.1 ENE 13 17 7 9 1016.4 1016.6 0.0
12/06:30am 8.7 5.5 6.7 87 0.9 E 13 17 7 9 1016.3 1016.5 0.0
12/06:00am 8.1 4.8 6.4 89 0.8 ESE 13 15 7 8 1016.3 1016.5 0.0
12/05:30am 8.5 6.0 6.5 87 0.9 E 9 13 5 7 1016.2 1016.4 0.0
12/05:00am 8.7 5.8 6.3 85 1.1 ENE 11 15 6 8 1016.0 1016.1 0.0
12/04:30am 9.2 5.9 6.6 84 1.2 E 13 17 7 9 1015.5 1015.7 0.0
12/04:00am 9.3 5.4 6.9 85 1.1 E 17 20 9 11 1015.4 1015.6 0.0
12/03:30am 9.1 5.9 6.7 85 1.1 E 13 17 7 9 1015.7 1015.9 0.0
12/03:00am 9.1 5.9 6.9 86 1.0 E 13 15 7 8 1016.1 1016.3 0.0
12/02:30am 8.9 6.0 6.7 86 1.0 E 11 15 6 8 1016.4 1016.6 0.0
12/02:00am 9.1 5.9 6.7 85 1.1 E 13 15 7 8 1016.7 1016.9 0.0
12/01:30am 9.3 5.3 6.7 84 1.2 ENE 17 20 9 11 1016.7 1016.9 0.0
12/01:00am 9.1 5.5 6.7 85 1.1 ENE 15 19 8 10 1016.8 1017.0 0.0
12/12:30am 9.0 5.4 6.6 85 1.1 E 15 17 8 9 1016.9 1017.1 0.0
12/12:00am 8.9 5.2 6.5 85 1.1 E 15 17 8 9 1016.9 1017.1 0.0
 
Date/Time
EST
Temp
°C
App
Temp
°C
Dew
Point
°C
Rel
Hum
%
Delta-T
°C
Wind Press
QNH
hPa
Press
MSL
hPa
Rain since
9am
mm
Dir  Spd
km/h
Gust
km/h
Spd
kts
Gust
kts
11/11:30pm 9.6 6.0 6.9 83 1.3 E 15 17 8 9 1017.1 1017.3 0.0
11/11:00pm 9.8 6.3 7.1 83 1.3 E 15 19 8 10 1017.2 1017.4 0.0
11/10:30pm 10.0 6.5 7.1 82 1.4 E 15 20 8 11 1017.6 1017.8 0.0
11/10:00pm 9.9 6.4 7.2 83 1.3 E 15 20 8 11 1017.3 1017.5 0.0
11/09:30pm 9.1 6.0 7.1 87 1.0 E 13 15 7 8 1017.5 1017.7 0.0
11/09:00pm 8.0 5.8 6.1 88 0.9 E 7 11 4 6 1017.7 1017.9 0.0
11/08:30pm 8.7 6.2 6.5 86 1.0 ENE 9 11 5 6 1017.8 1018.0 0.0
11/08:00pm 8.6 5.3 6.4 86 1.0 E 13 13 7 7 1017.3 1017.5 0.0
11/07:30pm 9.6 7.3 7.4 86 1.1 ESE 9 11 5 6 1017.3 1017.5 0.0
11/07:00pm 9.9 7.2 7.3 84 1.3 ESE 11 13 6 7 1017.0 1017.2 0.0
11/06:30pm 9.5 7.5 7.1 85 1.1 SE 7 9 4 5 1017.4 1017.6 0.0
11/06:00pm 9.6 7.4 6.3 80 1.6 SSE 7 13 4 7 1017.6 1017.8 0.0
11/05:30pm 11.5 9.7 7.0 74 2.2 WSW 6 9 3 5 1017.8 1018.0 0.0
11/05:00pm 13.4 12.8 7.2 66 3.1 CALM 0 0 0 0 1017.6 1017.8 0.0
11/04:30pm 13.6 12.3 6.0 60 3.7 N 2 6 1 3 1017.3 1017.5 0.0
11/04:00pm 15.5 13.1 5.4 51 4.9 N 7 15 4 8 1017.0 1017.2 0.0
11/03:30pm 15.2 12.9 5.7 53 4.6 N 7 11 4 6 1017.3 1017.5 0.0
11/03:00pm 15.1 11.7 6.1 55 4.4 NE 13 17 7 9 1017.3 1017.5 0.0
11/02:30pm 15.5 12.6 4.6 48 5.2 N 9 15 5 8 1017.9 1018.1 0.0
11/02:00pm 16.2 12.5 4.3 45 5.6 N 13 19 7 10 1018.4 1018.6 0.0
11/01:30pm 15.6 11.5 4.3 47 5.3 N 15 22 8 12 1018.7 1018.9 0.0
11/01:00pm 16.0 13.2 7.0 55 4.5 NE 11 20 6 11 1018.9 1019.1 0.0
11/12:30pm 16.0 12.2 7.7 58 4.2 E 17 24 9 13 1019.5 1019.8 0.0
11/12:00pm 14.9 10.0 7.0 59 3.9 E 22 30 12 16 1020.1 1020.3 0.0
11/11:30am 14.2 9.7 6.1 58 3.9 ENE 19 26 10 14 1021.1 1021.3 0.0
11/11:00am 13.4 8.8 6.5 63 3.3 E 20 28 11 15 1021.2 1021.4 0.0
11/10:30am 13.2 9.1 6.1 62 3.4 E 17 28 9 15 1021.7 1021.9 0.0
11/10:00am 11.6 8.6 6.1 69 2.6 ENE 11 17 6 9 1021.9 1022.1 0.0
11/09:30am 9.7 6.8 4.7 71 2.3 SE 9 13 5 7 1022.1 1022.4 0.0
11/09:00am 8.3 4.0 5.2 81 1.4 SE 17 20 9 11 1022.1 1022.4 0.2
11/08:30am 7.2 3.6 5.0 86 1.0 SE 13 17 7 9 1022.2 1022.5 0.2
11/08:00am 5.4 1.6 4.1 91 0.6 SE 13 15 7 8 1021.9 1022.1 0.2
11/07:30am 3.8 -0.9 2.9 94 0.4 SE 17 19 9 10 1021.4 1021.6 0.2
11/07:00am 2.2 -2.8 1.6 96 0.2 SSE 17 17 9 9 1021.0 1021.2 0.2
11/06:30am 2.4 -2.6 1.5 94 0.4 SE 17 17 9 9 1020.7 1020.9 0.2
11/06:00am 2.6 -2.0 1.6 93 0.4 SSE 15 17 8 9 1020.6 1020.8 0.2
11/05:30am 3.6 -0.8 2.9 95 0.3 SSE 15 19 8 10 1020.4 1020.6 0.2
11/05:00am 3.6 -0.8 2.9 95 0.3 SSE 15 19 8 10 1020.1 1020.3 0.2
11/04:30am 3.2 -1.7 2.3 94 0.4 SSE 17 20 9 11 1020.0 1020.2 0.2
11/04:00am 4.1 -1.0 3.2 94 0.4 SSE 19 20 10 11 1020.1 1020.3 0.2
11/03:30am 4.2 -1.0 3.8 97 0.2 SSE 20 22 11 12 1020.1 1020.3 0.2
11/03:00am 3.0 -1.8 2.4 96 0.2 SE 17 19 9 10 1020.1 1020.3 0.2
11/02:30am 3.6 -1.1 3.2 97 0.2 SE 17 20 9 11 1020.3 1020.5 0.2
11/02:00am 3.9 -0.7 3.6 98 0.1 SE 17 20 9 11 1020.6 1020.8 0.2
11/01:42am 3.3 -1.4 2.9 97 0.2 SE 17 17 9 9 1020.7 1020.9 0.2
11/01:30am 2.7 -1.0 2.1 96 0.2 ESE 11 15 6 8 1021.0 1021.2 0.2
11/01:12am 2.9 0.1 2.0 94 0.4 E 6 7 3 4 1021.2 1021.4 0.2
11/01:00am 3.0 0.2 1.8 92 0.5 ESE 6 7 3 4 1021.1 1021.3 0.2
11/12:30am 4.5 0.6 3.5 93 0.4 SE 13 13 7 7 1021.0 1021.2 0.2
11/12:00am 4.8 1.0 3.8 93 0.4 SE 13 15 7 8 1021.0 1021.2 0.2
 
Date/Time
EST
Temp
°C
App
Temp
°C
Dew
Point
°C
Rel
Hum
%
Delta-T
°C
Wind Press
QNH
hPa
Press
MSL
hPa
Rain since
9am
mm
Dir  Spd
km/h
Gust
km/h
Spd
kts
Gust
kts
10/11:30pm 5.3 1.5 3.8 90 0.6 SE 13 15 7 8 1021.0 1021.2 0.2
10/11:00pm 6.0 1.9 4.6 91 0.6 SE 15 17 8 9 1021.0 1021.2 0.2
10/10:30pm 6.1 1.7 4.6 90 0.7 SE 17 19 9 10 1020.8 1021.0 0.2
10/10:00pm 7.5 3.2 5.3 86 1.0 SSE 17 19 9 10 1020.7 1020.9 0.2
10/09:30pm 7.3 3.8 5.4 88 0.9 SSE 13 15 7 8 1020.5 1020.7 0.2
10/09:00pm 7.4 4.5 4.5 82 1.3 SE 9 13 5 7 1020.4 1020.6 0.2
10/08:30pm 9.5 6.2 6.6 82 1.4 SE 13 17 7 9 1020.0 1020.2 0.2
10/08:00pm 9.0 5.7 6.6 85 1.1 SE 13 17 7 9 1019.5 1019.8 0.2
10/07:30pm 9.7 6.5 6.8 82 1.4 SSE 13 15 7 8 1019.3 1019.6 0.2
10/07:00pm 8.4 5.9 6.4 87 0.9 SSE 9 11 5 6 1019.2 1019.5 0.2
10/06:30pm 9.8 7.9 6.9 82 1.4 SSE 6 7 3 4 1018.8 1019.0 0.2
10/06:00pm 10.9 9.8 6.8 76 2.0 SSE 2 7 1 4 1018.5 1018.7 0.2
10/05:30pm 13.2 11.3 6.5 64 3.3 SSE 6 7 3 4 1018.1 1018.3 0.2
10/05:00pm 14.8 12.2 6.1 56 4.2 ESE 9 11 5 6 1017.6 1017.8 0.2
10/04:30pm 15.8 11.7 6.3 53 4.7 SE 17 22 9 12 1017.4 1017.6 0.2
10/04:00pm 17.1 13.0 6.0 48 5.5 SSE 17 24 9 13 1017.4 1017.6 0.2
10/03:30pm 16.9 12.7 5.5 47 5.6 SSE 17 26 9 14 1017.2 1017.4 0.2
10/03:00pm 16.7 12.0 6.2 50 5.2 SE 20 28 11 15 1017.1 1017.3 0.2
10/02:30pm 16.6 12.1 5.9 49 5.3 SE 19 26 10 14 1017.1 1017.3 0.2
10/02:00pm 16.3 12.5 5.6 49 5.2 SSE 15 22 8 12 1017.2 1017.4 0.2
10/01:30pm 16.3 11.4 5.3 48 5.3 SSE 20 28 11 15 1017.1 1017.3 0.2
10/01:00pm 17.1 11.6 6.0 48 5.5 ESE 24 33 13 18 1017.0 1017.2 0.2
10/12:30pm 16.3 11.2 6.2 51 5.0 ESE 22 32 12 17 1017.2 1017.4 0.0
10/12:00pm 16.0 11.4 8.2 60 4.0 SE 22 35 12 19 1017.4 1017.6 0.0
10/11:30am 15.9 11.2 7.9 59 4.1 SSE 22 32 12 17 1017.2 1017.4 0.0
10/11:00am 15.4 10.6 7.4 59 4.0 SSE 22 35 12 19 1017.4 1017.6 0.0
10/10:30am 15.0 9.8 7.3 60 3.9 SSE 24 37 13 20 1017.3 1017.5 0.0
10/10:00am 14.5 10.6 8.7 68 3.0 SSE 19 30 10 16 1017.2 1017.4 0.0
10/09:30am 12.9 7.8 7.6 70 2.6 S 24 35 13 19 1016.9 1017.1 0.0
10/09:00am 12.4 8.1 7.9 74 2.2 S 20 28 11 15 1016.8 1017.0 0.0
10/08:30am 11.0 6.5 7.1 77 1.9 S 20 30 11 16 1016.4 1016.6 0.0
10/08:00am 9.4 6.0 7.7 89 0.8 S 15 17 8 9 1016.3 1016.5 0.0
10/07:30am 6.7 3.8 6.3 97 0.2 S 11 13 6 7 1015.7 1015.9 0.0
10/07:00am 5.3 2.8 4.6 95 0.3 SSW 7 11 4 6 1015.3 1015.5 0.0
10/06:30am 5.7 2.8 4.8 94 0.4 S 9 11 5 6 1015.0 1015.2 0.0
10/06:00am 5.9 2.0 5.2 95 0.3 SSW 15 17 8 9 1014.4 1014.6 0.0
10/05:30am 5.6 2.4 5.2 97 0.2 SSW 11 15 6 8 1013.7 1013.9 0.0
10/05:00am 4.3 1.2 3.7 96 0.3 WSW 9 11 5 6 1013.2 1013.4 0.0
10/04:30am 4.5 1.1 3.9 96 0.3 W 11 11 6 6 1013.0 1013.1 0.0
10/04:00am 5.1 2.2 4.5 96 0.3 WSW 9 11 5 6 1012.7 1012.8 0.0
10/03:30am 5.3 2.8 4.6 95 0.3 WSW 7 9 4 5 1012.3 1012.4 0.0
10/03:00am 6.2 3.9 5.5 95 0.3 SW 7 9 4 5 1012.4 1012.5 0.0
10/02:30am 6.5 3.0 5.6 94 0.4 WSW 13 17 7 9 1012.5 1012.6 0.0
10/02:00am 7.5 3.4 6.4 93 0.5 SW 17 22 9 12 1012.6 1012.7 0.0
10/01:52am 7.6 3.5 6.4 92 0.6 SW 17 24 9 13 1012.7 1012.8 0.0
10/01:34am 8.2 5.1 7.1 93 0.5 WSW 13 19 7 10 1012.9 1013.0 0.0
10/01:30am 8.1 4.9 7.0 93 0.5 WSW 13 19 7 10 1012.9 1013.0 0.0
10/01:00am 7.6 4.0 6.9 95 0.3 WSW 15 20 8 11 1013.1 1013.3 0.0
10/12:54am 7.5 3.5 6.8 95 0.3 WSW 17 22 9 12 1013.2 1013.4 0.0
10/12:30am 7.7 2.8 7.1 96 0.3 WSW 22 28 12 15 1013.1 1013.3 0.0
10/12:00am 7.5 2.6 6.8 95 0.3 W 22 28 12 15 1013.4 1013.6 0.0
 
Date/Time
EST
Temp
°C
App
Temp
°C
Dew
Point
°C
Rel
Hum
%
Delta-T
°C
Wind Press
QNH
hPa
Press
MSL
hPa
Rain since
9am
mm
Dir  Spd
km/h
Gust
km/h
Spd
kts
Gust
kts
09/11:30pm 7.5 2.6 6.8 95 0.3 WSW 22 28 12 15 1013.5 1013.7 0.0
09/11:00pm 7.4 2.5 6.7 95 0.3 WSW 22 30 12 16 1013.5 1013.7 0.0
09/10:30pm 7.4 3.8 6.7 95 0.3 W 15 24 8 13 1013.8 1014.0 0.0
09/10:00pm 7.3 3.7 6.6 95 0.3 WSW 15 20 8 11 1013.9 1014.1 0.0
09/09:30pm 7.3 2.9 6.4 94 0.4 WSW 19 28 10 15 1014.0 1014.2 0.0
09/09:00pm 7.2 2.5 6.1 93 0.5 WSW 20 26 11 14 1014.0 1014.2 0.0
09/08:30pm 7.3 2.6 6.1 92 0.6 WSW 20 26 11 14 1014.0 1014.2 0.0
09/08:01pm 7.3 3.9 5.8 90 0.7 W 13 20 7 11 1014.1 1014.3 0.0
09/08:00pm 7.3 3.9 5.8 90 0.7 W 13 17 7 9 1014.1 1014.3 0.0
09/07:30pm 7.2 4.0 5.3 88 0.9 W 11 15 6 8 1014.1 1014.3 0.0

Other formats

Comma delimited format used in spreadsheet applications
http://www.bom.gov.au/fwo/IDN60801/IDN60801.95719.axf

JavaScript Object Notation format (JSON) in row-major order
http://www.bom.gov.au/fwo/IDN60801/IDN60801.95719.json

Data quality

Most of these data are generated automatically and are frequently updated. Quality checks on data are not normally performed. It is possible for incorrect values to appear. Refer to information at About Latest Weather Observations and please check the disclaimer before using these data.